createdAt,value
2023-01-19T00:01:26.777Z,9.20
2023-01-19T00:03:54.069Z,9.40
2023-01-19T00:06:21.350Z,9.70
2023-01-19T00:08:52.094Z,9.40
2023-01-19T00:11:19.491Z,8.60
2023-01-19T00:13:50.375Z,10.20
2023-01-19T00:19:36.064Z,9.40
2023-01-19T00:22:05.679Z,9.50
2023-01-19T00:24:33.252Z,10.10
2023-01-19T00:27:03.358Z,12.20
2023-01-19T00:29:33.122Z,10.60
2023-01-19T00:32:01.410Z,10.20
2023-01-19T00:34:37.817Z,10.40
2023-01-19T00:37:09.367Z,10.20
2023-01-19T00:39:37.085Z,10.30
2023-01-19T00:42:23.595Z,12.70
2023-01-19T00:44:50.903Z,9.40
2023-01-19T00:47:18.877Z,9.10
2023-01-19T00:49:46.182Z,10.20
2023-01-19T00:52:13.466Z,8.40
2023-01-19T00:54:40.620Z,9.80
2023-01-19T00:57:08.140Z,9.90
2023-01-19T00:59:35.509Z,8.80
2023-01-19T01:02:03.043Z,9.80
2023-01-19T01:04:30.935Z,8.70
2023-01-19T01:06:58.392Z,9.10
2023-01-19T01:09:27.897Z,9.90
2023-01-19T01:11:56.718Z,10.40
2023-01-19T01:14:24.127Z,12.40
2023-01-19T01:16:51.994Z,11.20
2023-01-19T01:19:19.850Z,11.30
2023-01-19T01:21:47.239Z,10.30
2023-01-19T01:24:14.710Z,10.00
2023-01-19T01:26:42.217Z,12.10
2023-01-19T01:29:09.600Z,12.10
2023-01-19T01:31:37.130Z,12.50
2023-01-19T01:34:04.736Z,13.50
2023-01-19T01:36:33.206Z,12.10
2023-01-19T01:39:01.071Z,13.70
2023-01-19T01:41:29.138Z,13.60
2023-01-19T01:44:01.966Z,12.50
2023-01-19T01:46:31.804Z,14.20
2023-01-19T01:49:04.835Z,13.40
2023-01-19T01:51:39.247Z,12.40
2023-01-19T01:54:29.875Z,12.00
2023-01-19T01:57:02.077Z,13.10
2023-01-19T01:59:34.452Z,12.90
2023-01-19T02:02:23.648Z,11.70
2023-01-19T02:04:56.634Z,12.10
2023-01-19T02:07:48.315Z,11.50
2023-01-19T02:10:34.280Z,11.60
2023-01-19T02:13:21.555Z,10.90
2023-01-19T02:15:54.971Z,10.90
2023-01-19T02:18:23.856Z,10.20
2023-01-19T02:21:26.015Z,11.00
2023-01-19T02:23:54.681Z,10.20
2023-01-19T02:26:38.850Z,10.00
2023-01-19T02:29:25.030Z,12.10
2023-01-19T02:31:55.374Z,9.80
2023-01-19T02:34:23.210Z,11.70
2023-01-19T02:37:06.590Z,11.00
2023-01-19T02:39:45.730Z,11.10
2023-01-19T02:42:25.588Z,13.00
2023-01-19T02:44:54.324Z,12.00
2023-01-19T02:47:22.611Z,12.10
2023-01-19T02:50:00.106Z,12.40
2023-01-19T02:52:28.758Z,14.00
2023-01-19T02:55:15.140Z,14.20
2023-01-19T02:58:07.001Z,12.80
2023-01-19T03:01:17.647Z,13.00
2023-01-19T03:03:57.858Z,12.40
2023-01-19T03:06:47.946Z,16.90
2023-01-19T03:09:38.184Z,15.40
2023-01-19T03:12:25.703Z,17.70
2023-01-19T03:14:55.641Z,16.70
2023-01-19T03:17:23.174Z,17.80
2023-01-19T03:19:51.094Z,17.80
2023-01-19T03:22:23.992Z,18.60
2023-01-19T03:24:52.154Z,17.00
2023-01-19T03:27:31.022Z,17.20
2023-01-19T03:30:05.529Z,17.50
2023-01-19T03:32:37.041Z,17.30
2023-01-19T03:35:07.111Z,16.40
2023-01-19T03:37:34.609Z,16.40
2023-01-19T03:40:04.228Z,17.10
2023-01-19T03:42:34.207Z,16.20
2023-01-19T03:45:03.511Z,22.40
2023-01-19T03:47:32.026Z,19.60
2023-01-19T03:49:59.907Z,18.30
2023-01-19T03:52:35.765Z,16.70
2023-01-19T03:55:04.667Z,15.50
2023-01-19T03:57:33.935Z,14.00
2023-01-19T04:00:01.805Z,15.40
2023-01-19T04:02:40.237Z,16.90
2023-01-19T04:05:09.004Z,15.30
2023-01-19T04:07:36.981Z,14.40
2023-01-19T04:10:05.436Z,14.10
2023-01-19T04:12:34.552Z,12.70
2023-01-19T04:15:03.232Z,12.40
2023-01-19T04:17:31.820Z,11.40
2023-01-19T04:20:00.540Z,12.80
2023-01-19T04:22:32.735Z,11.80
2023-01-19T04:25:00.828Z,11.50
2023-01-19T04:27:28.696Z,12.30
2023-01-19T04:29:56.854Z,12.80
2023-01-19T04:32:24.593Z,12.30
2023-01-19T04:34:51.949Z,11.90
2023-01-19T04:37:20.667Z,13.50
2023-01-19T04:39:48.619Z,12.50
2023-01-19T04:42:16.821Z,12.00
2023-01-19T04:44:44.990Z,13.30
2023-01-19T04:47:14.618Z,14.90
2023-01-19T04:49:42.067Z,14.70
2023-01-19T04:52:12.897Z,13.50
2023-01-19T04:54:40.420Z,14.80
2023-01-19T04:57:08.035Z,13.50
2023-01-19T04:59:38.695Z,14.90
2023-01-19T05:02:06.264Z,14.40
2023-01-19T05:04:33.799Z,12.50
2023-01-19T05:07:01.430Z,15.50
2023-01-19T05:09:29.335Z,14.60
2023-01-19T05:11:58.770Z,14.40
2023-01-19T05:14:27.165Z,15.30
2023-01-19T05:16:55.200Z,14.90
2023-01-19T05:19:23.509Z,14.70
2023-01-19T05:21:51.059Z,15.90
2023-01-19T05:24:19.864Z,17.30
2023-01-19T05:26:47.545Z,17.00
2023-01-19T05:29:15.703Z,18.30
2023-01-19T05:31:43.644Z,18.70
2023-01-19T05:34:12.572Z,17.90
2023-01-19T05:36:41.254Z,16.90
2023-01-19T05:39:08.855Z,19.00
2023-01-19T05:41:37.122Z,19.10
2023-01-19T05:44:04.682Z,20.60
2023-01-19T05:46:34.283Z,21.60
2023-01-19T05:49:04.881Z,21.50
2023-01-19T05:51:37.887Z,22.00
2023-01-19T05:54:07.738Z,22.80
2023-01-19T05:56:39.230Z,26.90
2023-01-19T05:59:07.097Z,26.70
2023-01-19T06:01:38.931Z,22.00
2023-01-19T06:04:08.678Z,19.80
2023-01-19T06:06:36.533Z,19.50
2023-01-19T06:09:04.501Z,16.70
2023-01-19T06:11:32.297Z,17.30
2023-01-19T06:14:00.040Z,16.40
2023-01-19T06:16:28.521Z,17.20
2023-01-19T06:18:56.887Z,16.20
2023-01-19T06:21:25.266Z,16.20
2023-01-19T06:23:53.449Z,14.90
2023-01-19T06:26:21.207Z,13.80
2023-01-19T06:28:51.021Z,15.90
2023-01-19T06:31:18.758Z,17.00
2023-01-19T06:33:46.602Z,16.50
2023-01-19T06:36:17.721Z,19.00
2023-01-19T06:38:46.300Z,17.90
2023-01-19T06:41:13.978Z,27.90
2023-01-19T06:43:42.246Z,37.30
2023-01-19T06:46:09.827Z,45.30
2023-01-19T06:48:37.468Z,34.60
2023-01-19T06:51:06.423Z,19.70
2023-01-19T06:53:39.797Z,17.10
2023-01-19T06:56:09.355Z,15.10
2023-01-19T06:58:38.084Z,12.50
2023-01-19T07:01:06.687Z,9.50
2023-01-19T07:03:35.839Z,9.40
2023-01-19T07:06:06.387Z,9.70
2023-01-19T07:08:36.505Z,8.60
2023-01-19T07:11:24.564Z,9.00
2023-01-19T07:13:55.792Z,9.00
2023-01-19T07:16:24.079Z,7.20
2023-01-19T07:18:52.585Z,6.20
2023-01-19T07:21:21.783Z,4.70
2023-01-19T07:23:51.918Z,5.00
2023-01-19T07:26:21.164Z,5.10
2023-01-19T07:28:51.417Z,4.60
2023-01-19T07:31:19.701Z,5.20
2023-01-19T07:33:47.459Z,5.30
2023-01-19T07:36:16.838Z,5.10
2023-01-19T07:38:45.544Z,5.60
2023-01-19T07:41:13.837Z,4.90
2023-01-19T07:43:41.687Z,6.20
2023-01-19T07:46:10.809Z,7.20
2023-01-19T07:48:39.381Z,6.60
2023-01-19T07:51:12.891Z,5.90
2023-01-19T07:53:41.995Z,5.70
2023-01-19T07:56:10.548Z,5.60
2023-01-19T07:58:39.433Z,4.90
2023-01-19T08:01:09.086Z,6.20
2023-01-19T08:03:39.170Z,5.30
2023-01-19T08:06:07.808Z,4.90
2023-01-19T08:08:36.967Z,4.70
2023-01-19T08:11:05.828Z,4.40
2023-01-19T08:13:33.703Z,5.00
2023-01-19T08:16:02.333Z,4.50
2023-01-19T08:18:30.868Z,6.10
2023-01-19T08:21:00.490Z,5.80
2023-01-19T08:23:28.339Z,6.90
2023-01-19T08:25:56.406Z,6.00
2023-01-19T08:28:24.915Z,6.50
2023-01-19T08:30:56.262Z,5.40
2023-01-19T08:33:25.538Z,5.60
2023-01-19T08:35:53.940Z,5.60
2023-01-19T08:38:22.701Z,6.90
2023-01-19T08:40:51.367Z,7.30
2023-01-19T08:43:20.684Z,6.90
2023-01-19T08:45:52.739Z,6.50
2023-01-19T08:48:24.627Z,7.10
2023-01-19T08:50:53.007Z,9.00
2023-01-19T08:53:23.224Z,10.30
2023-01-19T08:55:57.218Z,9.40
2023-01-19T08:58:25.702Z,10.90
2023-01-19T09:00:54.257Z,9.20
2023-01-19T09:03:25.872Z,10.90
2023-01-19T09:05:53.701Z,9.40
2023-01-19T09:08:21.260Z,9.90
2023-01-19T09:10:51.189Z,11.30
2023-01-19T09:13:19.854Z,12.60
2023-01-19T09:15:49.880Z,13.20
2023-01-19T09:18:19.585Z,13.70
2023-01-19T09:20:49.101Z,12.60
2023-01-19T09:23:20.268Z,18.30
2023-01-19T09:25:48.008Z,18.20
2023-01-19T09:28:17.107Z,18.90
2023-01-19T09:30:44.490Z,20.30
2023-01-19T09:33:14.620Z,20.30
2023-01-19T09:35:43.061Z,20.60
2023-01-19T09:38:11.423Z,19.70
2023-01-19T09:40:49.348Z,19.20
2023-01-19T09:43:18.899Z,20.50
2023-01-19T09:45:58.367Z,18.20
2023-01-19T09:48:47.846Z,18.90
2023-01-19T09:51:31.703Z,21.00
2023-01-19T09:54:08.212Z,19.30
2023-01-19T09:56:36.531Z,19.40
2023-01-19T09:59:18.334Z,18.20
2023-01-19T10:01:59.701Z,17.70
2023-01-19T10:04:33.097Z,16.80
2023-01-19T10:07:10.192Z,19.50
2023-01-19T13:58:28.042Z,21.60
2023-01-19T14:00:56.520Z,20.30
2023-01-19T14:03:24.109Z,21.10
2023-01-19T14:05:52.866Z,19.10
2023-01-19T14:08:21.467Z,20.50
2023-01-19T14:10:55.992Z,19.80
2023-01-19T14:13:26.022Z,18.50
2023-01-19T14:15:56.074Z,18.70
2023-01-19T14:18:33.329Z,17.60
2023-01-19T14:21:08.625Z,15.30
2023-01-19T14:23:47.565Z,19.20
2023-01-19T14:26:45.842Z,16.10
2023-01-19T14:29:36.109Z,15.30
2023-01-19T14:32:09.964Z,16.60
2023-01-19T14:34:41.193Z,14.70
2023-01-19T14:37:22.289Z,16.10
2023-01-19T14:42:42.117Z,12.10
2023-01-19T14:45:36.894Z,13.00
2023-01-19T14:48:28.950Z,11.40
2023-01-19T14:51:03.958Z,14.50
2023-01-19T14:53:36.709Z,13.80
2023-01-19T14:56:05.312Z,12.30
2023-01-19T14:58:33.994Z,12.20
2023-01-19T15:01:01.686Z,10.20
2023-01-19T15:03:43.434Z,11.80
2023-01-19T15:06:19.717Z,11.90
2023-01-19T15:08:48.590Z,12.20
2023-01-19T15:11:21.890Z,12.30
2023-01-19T15:13:49.680Z,11.10
2023-01-19T15:16:17.348Z,13.00
2023-01-19T15:18:44.814Z,12.10
2023-01-19T15:21:15.145Z,12.70
2023-01-19T15:23:42.770Z,14.30
2023-01-19T15:26:12.703Z,16.90
2023-01-19T15:28:40.243Z,16.60
2023-01-19T15:31:11.613Z,15.10
2023-01-19T15:33:40.025Z,12.90
2023-01-19T15:36:17.938Z,12.10
2023-01-19T15:38:46.702Z,12.10
2023-01-19T15:41:18.142Z,13.30
2023-01-19T15:43:48.078Z,13.30
2023-01-19T15:46:16.016Z,12.10
2023-01-19T15:48:45.110Z,12.60
2023-01-19T15:51:14.022Z,11.60
2023-01-19T15:53:42.383Z,14.50
2023-01-19T15:56:29.814Z,14.40
2023-01-19T15:58:59.383Z,13.90
2023-01-19T16:01:32.354Z,11.90
2023-01-19T16:04:01.482Z,12.70
2023-01-19T16:06:29.986Z,13.50
2023-01-19T16:09:01.031Z,12.00
2023-01-19T16:11:30.665Z,12.70
2023-01-19T16:13:59.203Z,11.40
2023-01-19T16:16:27.742Z,13.40
2023-01-19T16:18:55.430Z,13.80
2023-01-19T16:21:23.494Z,16.50
2023-01-19T16:23:51.243Z,16.40
2023-01-19T16:26:27.684Z,18.90
2023-01-19T16:29:02.781Z,15.90
2023-01-19T16:31:30.449Z,16.60
2023-01-19T16:33:57.865Z,21.00
2023-01-19T16:36:32.572Z,18.30
2023-01-19T16:39:01.264Z,19.60
2023-01-19T16:41:29.002Z,18.50
2023-01-19T16:43:57.088Z,18.90
2023-01-19T16:46:30.140Z,17.40
2023-01-19T16:49:04.609Z,16.00
2023-01-19T16:51:32.262Z,16.50
2023-01-19T16:53:59.825Z,17.60
2023-01-19T16:56:27.376Z,21.20
2023-01-19T16:58:55.517Z,16.60
2023-01-19T17:01:23.625Z,14.90
2023-01-19T17:03:51.222Z,19.40
2023-01-19T17:06:22.776Z,17.50
2023-01-19T17:08:50.992Z,18.80
2023-01-19T17:11:26.803Z,21.20
2023-01-19T17:14:00.087Z,21.00
2023-01-19T17:16:28.418Z,18.40
2023-01-19T17:18:56.960Z,15.10
2023-01-19T17:21:24.304Z,17.90
2023-01-19T17:23:53.300Z,20.70
2023-01-19T17:26:20.881Z,19.40
2023-01-19T17:28:48.588Z,18.20
2023-01-19T17:31:18.600Z,16.70
2023-01-19T17:33:47.310Z,15.30
2023-01-19T17:36:16.629Z,13.90
2023-01-19T17:38:44.208Z,16.50
2023-01-19T17:41:35.358Z,14.70
2023-01-19T17:46:34.620Z,13.00
2023-01-19T17:49:04.202Z,13.50
2023-01-19T17:51:32.089Z,13.10
2023-01-19T17:53:59.603Z,12.50
2023-01-19T17:56:29.332Z,13.10
2023-01-19T17:58:57.604Z,14.10
2023-01-19T18:01:30.077Z,14.60
2023-01-19T22:08:22.354Z,14.40
2023-01-19T22:10:50.573Z,19.10
2023-01-19T22:13:18.112Z,20.70
2023-01-19T22:15:45.712Z,20.40
2023-01-19T22:18:13.373Z,18.80
2023-01-19T22:20:40.785Z,17.40
2023-01-19T22:23:08.249Z,18.60
2023-01-19T22:25:35.689Z,18.60
2023-01-19T22:28:03.188Z,18.90
2023-01-19T22:30:30.904Z,17.60
2023-01-19T22:32:58.476Z,18.70
2023-01-19T22:35:26.033Z,15.90
2023-01-19T22:37:53.484Z,17.60
2023-01-19T22:40:21.051Z,18.40
2023-01-19T22:42:48.788Z,16.80
2023-01-19T22:45:16.505Z,16.00
2023-01-19T22:47:44.492Z,16.30
2023-01-19T22:50:12.180Z,16.90
2023-01-19T22:52:39.730Z,16.30
2023-01-19T22:55:07.274Z,16.20
2023-01-19T22:57:36.991Z,16.50
2023-01-19T23:00:07.308Z,16.30
2023-01-19T23:02:34.837Z,15.80
2023-01-19T23:05:02.283Z,15.60
2023-01-19T23:07:29.836Z,15.20
2023-01-19T23:09:57.477Z,15.20
2023-01-19T23:12:24.981Z,14.80
2023-01-19T23:14:52.596Z,15.30
2023-01-19T23:17:20.294Z,16.30
2023-01-19T23:19:47.774Z,18.00
2023-01-19T23:22:15.217Z,14.80
2023-01-19T23:24:42.646Z,15.30
2023-01-19T23:27:12.208Z,14.80
2023-01-19T23:29:39.658Z,13.50
2023-01-19T23:32:07.079Z,14.60
2023-01-19T23:34:34.433Z,14.00
2023-01-19T23:37:01.875Z,14.70
2023-01-19T23:39:29.442Z,14.40
2023-01-19T23:41:56.941Z,13.30
2023-01-19T23:44:24.462Z,12.90
